Home PIREPS Pireps

Flight BEL12116TR

  • Submitted By: AndrĂ© Vincent
  • Departure Airport: Rabat (GMME)
  • Arrival Airport: Bruxelles National (EBBR)
  • Aircraft: YOUR CHOICE (YC)
  • Flight Time: 03.13
  • Date Submitted: 23/10/2017
  • Status: Accepted
Flight Details
Gross Revenue:
(25 load / € 0.00 per unit
€ 0.00
Fuel Cost:
(14920 fuel used @ 5.1 / unit)
€ 76,092.00

Additional Log Information:

View Log

Aircraft Used in flight is Boeing 737-800 Paint6
07:25 Brakes are On
07:28 Brakes are Released
07:32 You Took off @ 204 Knots and Flaps at Position 2
Departure Weather
GMME 230500Z 14002KT 0800 R21/P1500U FG SCT006 SCT015 17/16 Q1019 TEMPO 1200 BRrn
07:32 Landing Gear Up @ 205 Knots and 320 Feet
10:00 You exceeded maximum bank angle
10:29 Landing Gear Down @ 139 Knots and 1840 Feet
10:31 You Landed @ 102 Knots and with -50 Vertical Speed
Arrival Weather
EBBR 230820Z 25010KT 9999 FEW036 11/08 Q1019 NOSIGrn
10:38 Brakes are On
10:39 Brussels Bel-Track1.0.1.2

Route Map

Corporate About Us Our Team Vacancies Information Fleet Route Network Rules and Regulations Operations Flight Schedules Event Center Tours Partners IVAO Vatsim Acars dev FSCB

fb Users Online Belgium Martin Witters, Belgium Bennie Peeters, Belgium Jos Viville,
3 Pilot(s) and 149 Guest(s) Online
CMS by phpVMS - Design by Crazycreatives.com - Copyright © 2018 - Brussels Airlines Virtual